Time;durP1;ratioP1;P1;durP2;ratioP2;P2;SDS_P1;SDS_P2;PMS_P1;PMS_P2;Temp;Humidity;BMP_temperature;BMP_pressure;BME280_temperature;BME280_humidity;BME280_pressure;Samples;Min_cycle;Max_cycle;Signal;HPM_P1;HPM_P2
2023/05/23 00:02:06;;;;;;;18.40;14.00;;;;;;;15.13;100.00;98577.66;4896181;29;20588;-63
2023/05/23 00:04:35;;;;;;;22.63;14.17;;;;;;;15.14;100.00;98569.56;4902304;29;20240;-63
2023/05/23 00:07:02;;;;;;;18.67;13.60;;;;;;;15.16;100.00;98564.94;4900118;29;20233;-63
2023/05/23 00:09:55;;;;;;;20.83;14.37;;;;;;;15.18;100.00;98562.94;4903267;29;20250;-63
2023/05/23 00:12:22;;;;;;;17.80;13.63;;;;;;;15.17;100.00;98560.53;4900873;29;20246;-63
2023/05/23 00:14:49;;;;;;;16.67;13.33;;;;;;;15.16;100.00;98562.31;4903057;29;20242;-63
2023/05/23 00:17:16;;;;;;;17.10;13.10;;;;;;;15.14;100.00;98559.06;4895808;29;20644;-63
2023/05/23 00:19:44;;;;;;;21.80;14.07;;;;;;;15.19;100.00;98554.06;4902182;29;20234;-62
2023/05/23 00:22:14;;;;;;;20.27;14.53;;;;;;;15.17;100.00;98556.06;4899513;29;20292;-63
2023/05/23 00:24:41;;;;;;;19.37;13.93;;;;;;;15.13;100.00;98557.44;4901767;29;20236;-63
2023/05/23 00:27:09;;;;;;;17.73;13.87;;;;;;;15.11;100.00;98564.69;4898687;29;20240;-63
2023/05/23 00:29:36;;;;;;;17.70;14.03;;;;;;;15.19;100.00;98558.53;4901497;29;20262;-62
2023/05/23 00:32:03;;;;;;;17.93;13.67;;;;;;;15.16;100.00;98564.94;4897052;29;20580;-62
2023/05/23 00:34:38;;;;;;;16.03;13.63;;;;;;;15.10;100.00;98563.03;4893704;29;20234;-62
2023/05/23 00:37:05;;;;;;;15.50;12.67;;;;;;;15.08;100.00;98567.66;4874164;29;20682;-62
2023/05/23 00:39:36;;;;;;;17.00;13.80;;;;;;;15.07;100.00;98573.91;4899226;29;20652;-62
2023/05/23 00:42:05;;;;;;;19.87;13.20;;;;;;;15.14;100.00;98566.13;4882094;29;20751;-62
2023/05/23 00:44:37;;;;;;;20.00;13.10;;;;;;;15.09;100.00;98569.28;4900448;29;20728;-63
2023/05/23 00:47:04;;;;;;;19.77;13.23;;;;;;;15.04;100.00;98576.91;4891282;29;20238;-63
2023/05/23 00:49:36;;;;;;;17.10;14.07;;;;;;;15.05;100.00;98574.13;4901920;29;20228;-62
2023/05/23 00:52:03;;;;;;;21.13;14.57;;;;;;;15.08;100.00;98578.19;4897030;29;20246;-62
2023/05/23 00:54:36;;;;;;;18.73;14.63;;;;;;;15.14;100.00;98577.47;4876882;29;20234;-63
2023/05/23 00:57:03;;;;;;;18.50;13.40;;;;;;;15.15;100.00;98581.72;4893747;29;20746;-62
2023/05/23 00:59:37;;;;;;;20.20;13.53;;;;;;;15.20;100.00;98583.81;4900790;29;20243;-62
2023/05/23 01:02:04;;;;;;;17.33;13.90;;;;;;;15.23;100.00;98582.63;4896556;29;20246;-62
2023/05/23 01:04:36;;;;;;;16.90;13.80;;;;;;;15.23;100.00;98580.81;4897735;29;20225;-61
2023/05/23 01:07:03;;;;;;;20.00;13.93;;;;;;;15.20;100.00;98578.56;4882815;29;20227;-62
2023/05/23 01:09:54;;;;;;;17.57;14.03;;;;;;;15.15;100.00;98583.56;4900843;29;22364;-62
2023/05/23 01:12:29;;;;;;;19.57;13.73;;;;;;;15.12;100.00;98586.53;4882910;29;20242;-63
2023/05/23 01:15:05;;;;;;;18.97;14.00;;;;;;;15.14;100.00;98582.72;4871827;29;20237;-62
2023/05/23 01:17:41;;;;;;;18.60;13.63;;;;;;;15.17;100.00;98578.94;4902286;29;20796;-62
2023/05/23 01:20:11;;;;;;;21.43;14.20;;;;;;;15.22;100.00;98583.63;4887995;29;20250;-62
2023/05/23 01:23:24;;;;;;;19.83;14.33;;;;;;;15.24;100.00;98582.47;4885023;29;20263;-62
2023/05/23 01:26:27;;;;;;;15.80;13.37;;;;;;;15.27;100.00;98586.53;4898646;29;20236;-63
2023/05/23 01:29:04;;;;;;;16.47;13.00;;;;;;;15.27;100.00;98581.28;4897920;29;20233;-62
2023/05/23 01:31:34;;;;;;;18.77;13.70;;;;;;;15.29;100.00;98585.34;4891507;29;20325;-63
2023/05/23 01:34:02;;;;;;;17.23;14.20;;;;;;;15.28;100.00;98586.34;4895262;29;20249;-62
2023/05/23 01:36:30;;;;;;;18.53;13.17;;;;;;;15.37;100.00;98588.91;4883548;29;20234;-62
2023/05/23 01:38:57;;;;;;;18.27;14.90;;;;;;;15.37;100.00;98592.31;4882795;29;20252;-62
2023/05/23 01:41:23;;;;;;;19.87;15.27;;;;;;;15.39;100.00;98587.69;4901277;29;20239;-62
2023/05/23 01:43:50;;;;;;;17.50;14.27;;;;;;;15.42;100.00;98586.50;4901213;29;20407;-62
2023/05/23 01:46:19;;;;;;;17.33;13.97;;;;;;;15.43;100.00;98596.84;4894511;29;20253;-63
2023/05/23 01:48:47;;;;;;;16.50;13.57;;;;;;;15.43;100.00;98583.72;4901662;29;20238;-63
2023/05/23 01:51:14;;;;;;;20.03;14.40;;;;;;;15.45;100.00;98588.75;4894514;29;20229;-63
2023/05/23 01:53:41;;;;;;;19.50;13.67;;;;;;;15.52;100.00;98587.03;4896779;29;20237;-63
2023/05/23 01:56:08;;;;;;;18.73;14.27;;;;;;;15.54;100.00;98585.03;4881950;29;20283;-63
2023/05/23 01:58:34;;;;;;;16.60;13.40;;;;;;;15.53;100.00;98599.19;4884939;29;21207;-63
2023/05/23 02:01:01;;;;;;;19.33;14.40;;;;;;;15.52;100.00;98587.03;4899102;29;20231;-63
2023/05/23 02:03:29;;;;;;;19.17;13.90;;;;;;;15.49;100.00;98592.66;4880313;29;20251;-63
2023/05/23 02:05:56;;;;;;;19.40;14.03;;;;;;;15.49;100.00;98587.41;4889973;29;20238;-63
2023/05/23 02:08:22;;;;;;;16.80;13.43;;;;;;;15.49;100.00;98593.50;4882033;29;20324;-63
2023/05/23 02:10:49;;;;;;;20.17;14.70;;;;;;;15.50;100.00;98591.66;4899088;29;20232;-63
2023/05/23 02:13:15;;;;;;;17.07;13.33;;;;;;;15.52;100.00;98589.66;4877209;29;20695;-63
2023/05/23 02:15:43;;;;;;;19.20;13.70;;;;;;;15.54;100.00;98595.56;4888225;29;20314;-63
2023/05/23 02:18:09;;;;;;;18.90;13.50;;;;;;;15.60;100.00;98596.66;4902460;29;20230;-63
2023/05/23 02:20:40;;;;;;;17.70;13.37;;;;;;;15.68;100.00;98598.34;4888037;29;20239;-63
2023/05/23 02:23:07;;;;;;;15.97;13.47;;;;;;;15.69;100.00;98600.81;4879451;29;20235;-63
2023/05/23 02:25:34;;;;;;;18.67;13.70;;;;;;;15.70;100.00;98602.44;4905002;29;20671;-63
2023/05/23 02:28:01;;;;;;;18.30;14.07;;;;;;;15.71;100.00;98601.44;4885299;29;20239;-63
2023/05/23 02:30:27;;;;;;;18.63;14.43;;;;;;;15.75;100.00;98602.72;4905008;29;20242;-63
2023/05/23 02:32:54;;;;;;;19.33;13.73;;;;;;;15.78;100.00;98606.78;4887911;29;20738;-63
2023/05/23 02:35:22;;;;;;;17.77;13.93;;;;;;;15.82;100.00;98615.13;4884353;29;20236;-63
2023/05/23 02:37:50;;;;;;;18.13;13.33;;;;;;;15.82;100.00;98620.41;4895189;29;20228;-63
2023/05/23 02:40:17;;;;;;;17.67;13.60;;;;;;;15.82;100.00;98615.94;4900252;29;20245;-63
2023/05/23 02:42:44;;;;;;;17.90;13.07;;;;;;;15.79;100.00;98608.41;4892938;29;20589;-63
2023/05/23 02:45:11;;;;;;;21.00;13.57;;;;;;;15.79;100.00;98617.13;4896464;29;20323;-63
2023/05/23 02:47:37;;;;;;;17.40;13.43;;;;;;;15.79;100.00;98617.13;4888470;29;20307;-63
2023/05/23 02:50:04;;;;;;;17.10;13.83;;;;;;;15.81;100.00;98621.41;4898012;29;20281;-63
2023/05/23 02:52:32;;;;;;;19.83;14.47;;;;;;;15.79;100.00;98616.31;4896230;29;20253;-63
2023/05/23 02:55:00;;;;;;;20.93;14.77;;;;;;;15.79;100.00;98619.75;4896510;29;20244;-63
2023/05/23 02:57:28;;;;;;;20.53;14.60;;;;;;;15.81;100.00;98622.19;4888210;29;20254;-63
2023/05/23 02:59:55;;;;;;;17.97;14.83;;;;;;;15.80;100.00;98623.19;4885133;29;20343;-63
2023/05/23 03:02:22;;;;;;;20.43;15.07;;;;;;;15.80;100.00;98623.19;4886213;29;20734;-63
2023/05/23 03:04:49;;;;;;;19.50;15.87;;;;;;;15.81;100.00;98629.28;4895999;29;20486;-63
2023/05/23 03:07:16;;;;;;;18.47;14.57;;;;;;;15.79;100.00;98627.66;4886594;29;20239;-63
2023/05/23 03:09:42;;;;;;;21.53;14.63;;;;;;;15.81;100.00;98631.94;4887628;29;20232;-63
2023/05/23 03:12:10;;;;;;;18.23;14.10;;;;;;;15.83;100.00;98628.09;4883166;29;20248;-63
2023/05/23 03:14:37;;;;;;;18.47;14.40;;;;;;;15.87;100.00;98631.22;4876750;29;20240;-63
2023/05/23 03:17:04;;;;;;;18.87;14.33;;;;;;;15.88;100.00;98628.38;4898509;29;20259;-63
2023/05/23 03:19:36;;;;;;;18.07;14.27;;;;;;;15.87;100.00;98624.13;4890261;29;20239;-63
2023/05/23 03:22:02;;;;;;;19.00;14.43;;;;;;;15.86;100.00;98629.56;4884208;29;20247;-63
2023/05/23 03:24:54;;;;;;;16.80;13.97;;;;;;;15.85;100.00;98630.56;4904328;29;20243;-63
2023/05/23 03:27:22;;;;;;;18.40;14.30;;;;;;;15.87;100.00;98628.59;4895091;29;20224;-63
2023/05/23 03:29:49;;;;;;;18.87;14.57;;;;;;;15.87;100.00;98625.94;4903572;29;20244;-63
2023/05/23 03:32:15;;;;;;;19.07;14.63;;;;;;;15.91;100.00;98633.28;5112081;23;20253;-63
2023/05/23 03:34:42;;;;;;;23.37;15.23;;;;;;;15.89;100.00;98624.75;4928309;29;20738;-63
2023/05/23 03:37:11;;;;;;;18.60;14.73;;;;;;;15.87;100.00;98621.50;4922218;29;20223;-63
2023/05/23 03:39:37;;;;;;;16.13;13.30;;;;;;;15.87;100.00;98633.84;4927471;28;20607;-63
2023/05/23 03:42:04;;;;;;;18.27;14.27;;;;;;;15.88;100.00;98632.84;4913606;29;20690;-63
2023/05/23 03:44:37;;;;;;;18.77;13.80;;;;;;;15.87;100.00;98633.84;4898980;29;20232;-63
2023/05/23 03:47:06;;;;;;;19.13;14.87;;;;;;;15.87;100.00;98634.66;4894703;29;20240;-63
2023/05/23 03:49:39;;;;;;;19.00;13.93;;;;;;;15.87;100.00;98637.28;4890307;29;20239;-63
2023/05/23 03:52:05;;;;;;;17.80;13.53;;;;;;;15.91;100.00;98635.09;4888624;29;20236;-63
2023/05/23 03:54:36;;;;;;;17.97;13.57;;;;;;;15.91;100.00;98641.19;4891484;29;20770;-63
2023/05/23 03:57:03;;;;;;;19.60;14.67;;;;;;;15.93;100.00;98643.59;4904316;29;20242;-63
2023/05/23 03:59:38;;;;;;;18.10;14.27;;;;;;;15.94;100.00;98639.97;4888270;29;20240;-63
2023/05/23 04:02:09;;;;;;;18.73;15.07;;;;;;;16.00;100.00;98641.88;4891014;29;20790;-63
2023/05/23 04:04:36;;;;;;;18.87;14.87;;;;;;;16.01;100.00;98645.34;4897248;29;20239;-63
2023/05/23 04:07:04;;;;;;;21.27;14.53;;;;;;;16.00;100.00;98644.50;4899009;29;20230;-63
2023/05/23 04:09:36;;;;;;;22.50;16.70;;;;;;;15.99;100.00;98653.41;4890357;29;20687;-63
2023/05/23 04:12:08;;;;;;;20.60;15.60;;;;;;;16.02;100.00;98653.03;4893707;29;20238;-63
2023/05/23 04:14:38;;;;;;;19.47;15.30;;;;;;;16.03;100.00;98649.41;4907299;29;20606;-63
2023/05/23 04:17:07;;;;;;;23.03;16.50;;;;;;;16.03;100.00;98653.88;4887637;29;20237;-63
2023/05/23 04:19:37;;;;;;;25.37;15.93;;;;;;;16.03;100.00;98648.59;4905691;29;20265;-63
2023/05/23 04:22:04;;;;;;;24.00;18.30;;;;;;;16.03;100.00;98651.22;4904831;29;20240;-63
2023/05/23 04:24:37;;;;;;;23.97;18.10;;;;;;;16.02;100.00;98653.03;4888667;29;20242;-63
2023/05/23 04:27:29;;;;;;;25.30;19.57;;;;;;;16.00;100.00;98662.13;4904719;29;20236;-63
2023/05/23 04:29:57;;;;;;;26.07;19.10;;;;;;;16.00;100.00;98660.31;4886246;29;20231;-63
2023/05/23 04:32:25;;;;;;;24.80;18.27;;;;;;;16.00;100.00;98657.66;4900716;29;20235;-63
2023/05/23 04:34:55;;;;;;;23.37;18.23;;;;;;;16.00;100.00;98662.94;4904901;29;20288;-63
2023/05/23 04:37:24;;;;;;;25.30;18.30;;;;;;;16.02;100.00;98663.56;4895055;29;20557;-63
2023/05/23 04:39:52;;;;;;;26.50;18.93;;;;;;;16.06;100.00;98671.91;4906101;29;20253;-63
2023/05/23 04:42:43;;;;;;;25.73;18.00;;;;;;;16.04;100.00;98671.28;4879832;29;20242;-63
2023/05/23 04:45:25;;;;;;;25.83;18.27;;;;;;;16.07;100.00;98669.09;4893176;29;20253;-63
2023/05/23 04:48:03;;;;;;;27.77;17.83;;;;;;;16.09;100.00;98669.72;4889269;29;20246;-63
2023/05/23 04:50:36;;;;;;;22.50;17.63;;;;;;;16.12;100.00;98670.34;4905093;29;20334;-63
2023/05/23 04:53:04;;;;;;;29.37;19.53;;;;;;;16.14;100.00;98676.25;4884993;29;21032;-63
2023/05/23 04:55:30;;;;;;;25.53;18.40;;;;;;;16.22;100.00;98686.69;4903976;29;20238;-63
2023/05/23 04:57:57;;;;;;;27.37;20.27;;;;;;;16.17;100.00;98689.03;4900428;29;20271;-63
2023/05/23 05:00:24;;;;;;;23.30;18.10;;;;;;;16.20;100.00;98688.69;4887015;29;20243;-63
2023/05/23 05:02:51;;;;;;;22.63;17.53;;;;;;;16.23;100.00;98686.50;4905036;29;20235;-63
2023/05/23 05:05:19;;;;;;;24.37;17.73;;;;;;;16.24;100.00;98692.56;4903958;29;20236;-63
2023/05/23 05:07:45;;;;;;;24.17;17.80;;;;;;;16.28;100.00;98690.41;4872405;29;20232;-63
2023/05/23 05:10:15;;;;;;;24.23;17.83;;;;;;;16.30;100.00;98702.38;4879938;29;20289;-63
2023/05/23 05:12:43;;;;;;;24.83;18.27;;;;;;;16.31;100.00;98698.72;4882030;29;20709;-63
2023/05/23 05:15:11;;;;;;;25.10;17.20;;;;;;;16.34;100.00;98700.19;4878182;29;20242;-64
2023/05/23 05:17:39;;;;;;;21.70;16.87;;;;;;;16.35;100.00;98702.63;4887683;29;20271;-63
2023/05/23 05:20:10;;;;;;;23.63;18.60;;;;;;;16.37;100.00;98700.63;4887692;29;20247;-63
2023/05/23 05:22:40;;;;;;;26.00;19.87;;;;;;;16.43;100.00;98708.78;4904321;29;20253;-63
2023/05/23 05:25:08;;;;;;;27.17;19.80;;;;;;;16.47;100.00;98707.41;4899704;29;20247;-63
2023/05/23 05:27:36;;;;;;;25.17;19.57;;;;;;;16.58;100.00;98703.44;4890049;29;20665;-63
2023/05/23 05:30:06;;;;;;;27.70;19.47;;;;;;;16.45;100.00;98706.78;4885989;29;20313;-63
2023/05/23 05:32:39;;;;;;;27.23;20.93;;;;;;;16.53;100.00;98698.75;4881505;29;20239;-63
2023/05/23 05:35:07;;;;;;;29.40;22.37;;;;;;;16.67;100.00;98699.69;4886795;29;21119;-63
2023/05/23 05:37:34;;;;;;;30.73;20.00;;;;;;;16.83;100.00;98696.78;4882112;29;20234;-63
2023/05/23 05:40:06;;;;;;;36.77;24.40;;;;;;;16.90;100.00;98702.13;4887550;29;20360;-63
2023/05/23 05:42:33;;;;;;;32.07;25.50;;;;;;;17.15;100.00;98700.94;4905455;29;20866;-63
2023/05/23 05:45:00;;;;;;;37.50;26.13;;;;;;;17.31;100.00;98702.44;4884803;29;20703;-63
2023/05/23 05:47:27;;;;;;;32.80;25.27;;;;;;;17.55;100.00;98701.16;4889569;29;20248;-63
2023/05/23 05:49:55;;;;;;;34.90;25.83;;;;;;;17.74;97.28;98693.56;4887300;29;20227;-63
2023/05/23 05:52:22;;;;;;;39.63;25.90;;;;;;;17.96;96.74;98702.22;4879625;29;20246;-63
2023/05/23 05:54:49;;;;;;;33.20;23.67;;;;;;;18.22;94.83;98706.78;4906163;29;20233;-63
2023/05/23 05:57:17;;;;;;;31.10;23.07;;;;;;;18.27;94.08;98709.66;4884313;29;20334;-63
2023/05/23 05:59:43;;;;;;;37.70;23.77;;;;;;;18.41;92.83;98713.13;4890526;29;20247;-63
2023/05/23 06:02:10;;;;;;;32.43;23.50;;;;;;;18.52;92.58;98710.94;4874971;29;20257;-63
2023/05/23 06:04:37;;;;;;;27.73;21.40;;;;;;;18.48;94.19;98714.97;4888454;29;20233;-63
2023/05/23 06:07:04;;;;;;;31.73;23.27;;;;;;;18.40;91.53;98708.06;4885689;29;20230;-63
2023/05/23 06:09:36;;;;;;;30.20;22.23;;;;;;;18.36;89.95;98710.28;4903533;29;20317;-63
2023/05/23 06:12:03;;;;;;;34.27;23.20;;;;;;;18.36;89.48;98710.28;4887388;29;20236;-63
2023/05/23 06:14:56;;;;;;;30.97;22.00;;;;;;;18.35;89.49;98713.13;4905361;29;20605;-63
2023/05/23 06:17:22;;;;;;;30.40;21.90;;;;;;;18.39;89.52;98717.00;4885924;29;20252;-63
2023/05/23 06:19:49;;;;;;;27.80;21.70;;;;;;;18.28;86.49;98713.94;4889664;29;20571;-63
2023/05/23 06:22:16;;;;;;;27.90;19.93;;;;;;;18.42;86.80;98712.13;4901404;29;20642;-63
2023/05/23 06:24:43;;;;;;;24.60;18.77;;;;;;;18.65;87.00;98720.69;4888034;29;20231;-63
2023/05/23 06:27:09;;;;;;;27.00;20.00;;;;;;;18.64;85.30;98724.34;4888275;29;20230;-64
2023/05/23 06:29:36;;;;;;;24.30;17.80;;;;;;;18.73;85.97;98726.63;4886981;29;20253;-63
2023/05/23 06:32:05;;;;;;;23.80;17.37;;;;;;;18.68;81.95;98731.69;4895095;29;20261;-63
2023/05/23 06:34:36;;;;;;;23.33;17.63;;;;;;;18.44;82.92;98735.72;4878052;29;20241;-63
2023/05/23 06:37:02;;;;;;;25.93;17.43;;;;;;;18.24;82.43;98740.94;4902947;29;20614;-63
2023/05/23 06:39:36;;;;;;;27.07;16.73;;;;;;;18.14;84.00;98739.47;4886003;29;20328;-63
2023/05/23 06:42:03;;;;;;;21.23;16.57;;;;;;;18.27;82.65;98745.81;4901790;29;21944;-63
2023/05/23 06:44:52;;;;;;;22.47;16.90;;;;;;;18.22;83.49;98746.41;4889449;29;20376;-63
2023/05/23 06:47:20;;;;;;;19.83;15.40;;;;;;;18.27;83.79;98743.16;4887891;29;20244;-63
2023/05/23 06:49:46;;;;;;;19.43;15.60;;;;;;;18.43;84.54;98753.41;4907876;29;20296;-63
2023/05/23 06:52:13;;;;;;;21.83;17.07;;;;;;;18.56;81.92;98754.44;4907590;29;20245;-63
2023/05/23 06:54:41;;;;;;;25.83;17.33;;;;;;;18.65;80.33;98760.34;4892228;29;20753;-63
2023/05/23 06:57:07;;;;;;;22.40;17.50;;;;;;;18.65;79.45;98774.41;4891599;29;20268;-63
2023/05/23 06:59:36;;;;;;;25.63;18.03;;;;;;;18.28;81.31;98764.13;4882904;29;20232;-64
2023/05/23 07:02:04;;;;;;;27.70;20.20;;;;;;;17.82;84.18;98773.44;4886543;29;20229;-63
2023/05/23 07:04:37;;;;;;;27.00;20.67;;;;;;;17.74;84.96;98765.66;4898650;29;20288;-63
2023/05/23 07:07:10;;;;;;;28.90;19.47;;;;;;;17.71;85.22;98779.25;4887887;29;20247;-63
2023/05/23 07:09:37;;;;;;;24.73;17.57;;;;;;;17.61;85.18;98789.34;4904224;29;20730;-63
2023/05/23 07:12:09;;;;;;;20.40;15.53;;;;;;;17.39;83.12;98787.56;4898309;29;20296;-63
2023/05/23 07:14:39;;;;;;;19.60;15.03;;;;;;;17.54;83.51;98794.56;4890931;29;20261;-63
2023/05/23 07:17:06;;;;;;;18.20;14.47;;;;;;;17.42;82.67;98799.53;4888474;29;20324;-63
2023/05/23 07:19:37;;;;;;;22.47;14.37;;;;;;;17.51;81.59;98795.75;4906500;29;20229;-63
2023/05/23 07:22:04;;;;;;;20.47;13.33;;;;;;;17.70;79.65;98799.53;4908801;29;20240;-63
2023/05/23 07:24:38;;;;;;;16.93;12.20;;;;;;;17.74;78.74;98794.72;4909460;29;20360;-63
2023/05/23 07:27:06;;;;;;;19.97;13.20;;;;;;;17.92;76.95;98793.41;4890291;29;20252;-63
2023/05/23 07:29:38;;;;;;;15.97;12.77;;;;;;;18.03;76.97;98789.41;4898816;29;20236;-63
2023/05/23 07:32:05;;;;;;;16.63;13.17;;;;;;;18.27;75.99;98788.09;4892080;29;20696;-63
2023/05/23 07:34:38;;;;;;;18.03;13.17;;;;;;;18.40;75.68;98790.78;4906061;29;20232;-63
2023/05/23 07:37:06;;;;;;;19.63;14.13;;;;;;;18.02;77.16;98793.06;4904579;29;20235;-63
2023/05/23 07:39:42;;;;;;;18.70;14.17;;;;;;;18.15;76.67;98791.28;4906116;29;20377;-63
2023/05/23 07:42:08;;;;;;;18.10;13.73;;;;;;;18.17;78.03;98792.91;4903579;29;20323;-63
2023/05/23 07:44:37;;;;;;;19.60;15.33;;;;;;;17.85;78.88;98796.81;4907149;29;20233;-63
2023/05/23 07:47:04;;;;;;;23.23;15.73;;;;;;;17.98;78.81;98797.91;4906089;29;20220;-63
2023/05/23 07:49:36;;;;;;;21.73;14.77;;;;;;;17.96;78.27;98800.72;4904997;29;20326;-63
2023/05/23 07:52:05;;;;;;;17.10;13.73;;;;;;;17.81;78.00;98789.47;4889597;29;20304;-63
2023/05/23 07:54:37;;;;;;;20.57;15.53;;;;;;;17.98;77.47;98811.09;4893543;29;20239;-63
2023/05/23 07:57:06;;;;;;;17.73;13.80;;;;;;;18.26;76.76;98810.25;4886408;29;20242;-63
2023/05/23 07:59:36;;;;;;;19.13;13.93;;;;;;;18.56;72.99;98808.13;4889880;29;20707;-63
2023/05/23 08:02:03;;;;;;;19.17;13.03;;;;;;;18.68;73.65;98821.59;4896467;29;20300;-63
2023/05/23 08:04:36;;;;;;;17.67;13.23;;;;;;;18.85;71.14;98816.75;4899155;29;20241;-63
2023/05/23 08:07:07;;;;;;;14.87;11.97;;;;;;;18.44;72.80;98818.44;4886737;29;20260;-63
2023/05/23 08:09:43;;;;;;;18.83;13.00;;;;;;;18.37;73.75;98825.53;4897480;29;20376;-63
2023/05/23 08:12:13;;;;;;;16.13;12.07;;;;;;;18.48;72.61;98829.47;4900573;29;20691;-63
2023/05/23 08:14:40;;;;;;;17.17;13.73;;;;;;;18.52;72.50;98821.94;4903387;29;20233;-63
2023/05/23 08:17:16;;;;;;;17.27;13.87;;;;;;;18.69;72.06;98823.22;4903407;29;20636;-63
2023/05/23 08:19:43;;;;;;;13.93;11.20;;;;;;;19.17;74.63;98829.44;4893202;29;20243;-63
2023/05/23 08:22:11;;;;;;;14.27;11.33;;;;;;;19.46;74.98;98838.00;4888154;29;20793;-63
2023/05/23 08:24:38;;;;;;;16.90;13.90;;;;;;;19.45;71.56;98831.09;4889854;29;20335;-63
2023/05/23 08:27:06;;;;;;;18.87;15.33;;;;;;;19.55;69.99;98831.50;4903263;29;20232;-63
2023/05/23 08:29:37;;;;;;;19.37;15.70;;;;;;;19.19;71.67;98835.34;4888700;29;20246;-63
2023/05/23 08:32:04;;;;;;;16.47;14.10;;;;;;;19.30;72.82;98841.88;4901851;29;20738;-63
2023/05/23 08:34:36;;;;;;;15.60;12.73;;;;;;;19.73;69.58;98843.31;4890051;29;20238;-63
2023/05/23 08:37:03;;;;;;;16.57;13.17;;;;;;;19.55;67.57;98838.66;4886393;29;20265;-63
2023/05/23 08:39:37;;;;;;;15.00;12.10;;;;;;;19.90;67.50;98851.66;4896255;29;20231;-63
2023/05/23 08:42:24;;;;;;;16.63;12.80;;;;;;;19.59;67.93;98848.59;4905444;29;20357;-63
2023/05/23 08:44:52;;;;;;;14.83;12.30;;;;;;;19.74;68.55;98844.94;4899733;29;20701;-63
2023/05/23 08:47:19;;;;;;;19.03;14.70;;;;;;;19.15;69.71;98844.69;4900689;29;20774;-63
2023/05/23 08:49:55;;;;;;;22.37;15.30;;;;;;;18.77;71.77;98840.72;4906971;29;20723;-63
2023/05/23 08:52:27;;;;;;;19.67;15.20;;;;;;;18.46;73.45;98849.16;4906829;29;20343;-63
2023/05/23 08:54:57;;;;;;;19.37;14.33;;;;;;;18.59;72.94;98847.38;4883617;29;20239;-63
2023/05/23 08:57:25;;;;;;;16.10;12.97;;;;;;;18.58;73.89;98852.88;4903749;29;20291;-63
2023/05/23 08:59:57;;;;;;;15.80;13.53;;;;;;;19.08;72.32;98850.00;4900125;29;20241;-62
2023/05/23 09:02:24;;;;;;;15.50;12.93;;;;;;;19.39;69.25;98861.03;4880572;29;20245;-63
2023/05/23 09:04:56;;;;;;;15.97;12.80;;;;;;;19.87;67.33;98854.69;4885434;29;20713;-63
2023/05/23 09:07:25;;;;;;;19.80;14.17;;;;;;;19.49;66.14;98861.44;4886719;29;20301;-63
2023/05/23 09:09:53;;;;;;;15.80;12.63;;;;;;;19.83;66.04;98869.38;4903885;29;20248;-63
2023/05/23 09:12:22;;;;;;;15.67;12.03;;;;;;;20.11;64.82;98873.63;4890786;29;20252;-63
2023/05/23 09:14:50;;;;;;;16.37;12.47;;;;;;;20.52;62.44;98871.69;4880610;29;20698;-63
2023/05/23 09:17:18;;;;;;;15.57;13.47;;;;;;;20.17;62.39;98872.81;4901480;29;20237;-63
2023/05/23 09:19:46;;;;;;;16.97;12.50;;;;;;;19.93;64.29;98876.94;4903110;29;20241;-63
2023/05/23 09:22:25;;;;;;;15.77;12.50;;;;;;;20.06;62.90;98872.44;4884934;29;20244;-63
2023/05/23 09:25:00;;;;;;;15.97;12.27;;;;;;;19.32;66.15;98877.72;4897544;29;20252;-62
2023/05/23 09:27:30;;;;;;;15.70;12.27;;;;;;;19.98;65.55;98871.84;4902661;29;20574;-62
2023/05/23 09:29:56;;;;;;;14.53;11.80;;;;;;;20.50;64.34;98863.97;4885770;29;20237;-63
2023/05/23 09:32:26;;;;;;;16.07;11.63;;;;;;;21.04;61.72;98876.97;4903932;29;20755;-63
2023/05/23 09:34:57;;;;;;;21.00;13.30;;;;;;;20.05;62.39;98875.28;4893542;29;20239;-63
2023/05/23 09:37:30;;;;;;;19.13;13.33;;;;;;;19.13;64.96;98875.84;4900715;29;20308;-63
2023/05/23 09:39:57;;;;;;;17.50;13.67;;;;;;;19.32;65.06;98874.25;4901916;29;20308;-63
2023/05/23 09:42:24;;;;;;;18.50;14.43;;;;;;;19.50;66.26;98875.50;4879996;29;20265;-63
2023/05/23 09:44:53;;;;;;;18.67;14.10;;;;;;;19.21;66.02;98877.50;4887978;29;20256;-63
2023/05/23 09:47:20;;;;;;;19.03;13.93;;;;;;;19.00;67.13;98884.56;4884785;29;20226;-63
2023/05/23 09:49:47;;;;;;;19.73;14.70;;;;;;;19.23;66.50;98873.63;4902735;29;20233;-62
2023/05/23 09:52:13;;;;;;;20.00;13.93;;;;;;;19.51;66.24;98877.13;4885102;29;20233;-62
2023/05/23 09:54:40;;;;;;;17.13;14.07;;;;;;;19.66;66.12;98882.22;4904607;29;20716;-62
2023/05/23 09:57:10;;;;;;;18.70;13.73;;;;;;;20.01;64.70;98885.47;4885360;29;20296;-62
2023/05/23 09:59:40;;;;;;;20.43;14.57;;;;;;;19.55;66.01;98886.28;4906486;29;20643;-60
2023/05/23 10:02:11;;;;;;;19.57;13.83;;;;;;;19.62;65.86;98879.97;4892580;29;20594;-62
2023/05/23 10:04:40;;;;;;;20.53;12.80;;;;;;;19.54;66.44;98877.53;4902640;29;20230;-61
2023/05/23 10:07:14;;;;;;;17.60;12.57;;;;;;;19.50;67.20;98878.16;4902128;29;20253;-61
2023/05/23 10:09:44;;;;;;;17.77;12.53;;;;;;;19.87;67.65;98883.81;4904154;29;20239;-62
2023/05/23 10:12:44;;;;;;;17.03;11.77;;;;;;;20.77;63.75;98880.59;4903069;29;20238;-62
2023/05/23 10:15:14;;;;;;;15.87;12.37;;;;;;;20.58;62.99;98881.47;4900105;29;20236;-62
2023/05/23 10:17:53;;;;;;;17.33;11.63;;;;;;;20.64;62.12;98885.91;4903670;29;20233;-62
2023/05/23 10:20:24;;;;;;;16.17;12.20;;;;;;;20.01;63.49;98893.44;4903268;29;20228;-62
2023/05/23 10:22:52;;;;;;;15.80;12.23;;;;;;;19.35;66.60;98887.09;4908282;29;20245;-61
2023/05/23 10:25:19;;;;;;;16.07;12.03;;;;;;;19.45;66.02;98886.69;4907284;29;20618;-62
2023/05/23 10:27:49;;;;;;;16.10;12.03;;;;;;;19.56;65.24;98886.09;4897542;29;20244;-62
2023/05/23 10:30:15;;;;;;;17.20;11.80;;;;;;;19.39;65.65;98887.50;4895155;29;20241;-62
2023/05/23 10:32:45;;;;;;;15.10;11.37;;;;;;;19.89;63.93;98897.72;4909763;29;20712;-62
2023/05/23 10:35:21;;;;;;;11.97;9.77;;;;;;;19.35;64.15;98892.38;4888653;29;20242;-62
2023/05/23 10:37:55;;;;;;;15.10;11.03;;;;;;;18.91;67.08;98888.38;4906406;29;20228;-61
2023/05/23 10:40:31;;;;;;;12.20;9.87;;;;;;;19.43;64.70;98888.72;4896775;29;20254;-61
2023/05/23 10:43:05;;;;;;;14.40;10.70;;;;;;;19.13;65.47;98887.25;4903916;29;20247;-62
2023/05/23 10:45:41;;;;;;;12.33;9.70;;;;;;;19.41;63.86;98886.28;4912248;29;20240;-61
2023/05/23 10:48:21;;;;;;;13.13;10.13;;;;;;;19.52;64.33;98898.09;4905422;29;20258;-61
2023/05/23 10:51:02;;;;;;;12.47;9.57;;;;;;;19.87;63.14;98897.06;4907232;29;20314;-62
2023/05/23 10:53:29;;;;;;;13.50;9.90;;;;;;;19.94;62.41;98894.47;4904851;29;20228;-61
2023/05/23 10:55:56;;;;;;;11.70;8.83;;;;;;;20.89;60.98;98896.66;4906055;29;20236;-62
2023/05/23 10:58:23;;;;;;;13.83;9.87;;;;;;;20.39;59.95;98907.03;4908423;29;20565;-62
2023/05/23 11:00:54;;;;;;;11.43;9.10;;;;;;;20.66;60.34;98910.41;4907049;29;20241;-62
2023/05/23 11:03:34;;;;;;;13.13;8.63;;;;;;;20.81;59.74;98906.69;4903744;29;20306;-61
2023/05/23 11:06:01;;;;;;;10.37;8.20;;;;;;;20.19;61.81;98906.03;4904894;29;20278;-62
2023/05/23 11:08:28;;;;;;;9.93;7.43;;;;;;;20.03;60.04;98914.44;4908227;29;20289;-62
2023/05/23 11:10:59;;;;;;;12.17;8.60;;;;;;;19.47;62.53;98911.13;4905624;29;20240;-62
2023/05/23 11:13:26;;;;;;;9.60;8.33;;;;;;;19.76;61.44;98915.19;4902588;29;20689;-61
2023/05/23 11:15:53;;;;;;;12.53;8.53;;;;;;;20.40;58.98;98917.41;4909070;29;20322;-61
2023/05/23 11:18:21;;;;;;;10.70;7.77;;;;;;;20.14;60.21;98908.47;4904007;29;20230;-61
2023/05/23 11:20:50;;;;;;;8.30;6.90;;;;;;;19.66;62.55;98906.06;4906973;29;20235;-60
2023/05/23 11:23:17;;;;;;;8.90;6.90;;;;;;;20.49;59.85;98904.75;4904854;29;20988;-60
2023/05/23 11:25:45;;;;;;;9.87;6.80;;;;;;;20.85;58.79;98905.25;4906792;29;20248;-60
2023/05/23 11:28:12;;;;;;;8.30;6.63;;;;;;;20.61;57.70;98905.72;4905447;29;20230;-61